Witter Springs, California
Current Conditions -  °F | °C
As of 1:56 AM on Thursday 27 Nov 2014 (Local Time) from KUKI Reporting Station
Clear Clear  
Wind Chill: 46°   Ceiling: Unl
Heat Index: 46°   Visibility: 9mi
Dew Point: 43°   Wind: 3mph
Humidity: 89%   Direction: 280°W
Pressure: 30.21"   Gusts: NA
Location:  39.18°N, 122.96°W
Report Text: KUKI 270956Z AUTO 28003KT 9SM CLR 08/06 A3021 RMK AO2 SLP228 T00780061
Loading
Personal Weather Stations






























Interactive Weather Map New forecast layout! Learn more

10-Day Weather Forecast

Advertisements
Track Severe Weather on mobile